CA-0275 weather

CLOSED Parrsboro Airport
Nova Scotia, Canada

Public forecast

Using degrees Celsius for public forecast. Weather courtesy of forecast.io.

METAR (pilot weather report)

Closest report is CFB Greenwood, 35.8 nm (66.3 km) SW. Retrieved 2019/09/22 17:00 UTC (44 minutes ago):

CYZX 221700Z 24018G26KT 15SM FEW036 BKN250 24/15 A3006 RMK SC2CI3 SLP179

TAF (pilot weather forecast)

Closest forecast is CFB Greenwood, 35.8 nm (66.3 km) SW. Retrieved 2019/09/22 12:33 UTC (5 hours ago):

TAF CYZX 221130Z 2212/2312 VRB03KT P6SM FEW040 SCT250 BECMG 2213/2215 24012G22KT BECMG 2216/2218 24015G25KT FM230100 23010KT P6SM SCT250 RMK NXT FCST BY 221800Z